createdAt,value
2022-10-11T00:00:05.082Z,62.3
2022-10-11T00:01:04.217Z,62.2
2022-10-11T00:02:05.089Z,62
2022-10-11T00:03:05.101Z,62
2022-10-11T00:05:05.092Z,61.9
2022-10-11T00:06:05.623Z,61.9
2022-10-11T00:08:05.215Z,61.9
2022-10-11T00:09:05.319Z,62.1
2022-10-11T00:11:05.101Z,61.9
2022-10-11T00:13:05.104Z,61.6
2022-10-11T00:16:05.518Z,60.9
2022-10-11T00:17:05.094Z,60.9
2022-10-11T00:18:05.569Z,60.9
2022-10-11T00:19:05.142Z,61.2
2022-10-11T00:20:05.094Z,61.5
2022-10-11T00:21:05.118Z,61.8
2022-10-11T00:22:05.115Z,61.9
2022-10-11T00:23:05.440Z,62
2022-10-11T00:24:05.095Z,62
2022-10-11T00:25:04.165Z,62.2
2022-10-11T00:26:05.381Z,62.3
2022-10-11T00:27:05.285Z,62.4
2022-10-11T00:28:05.610Z,62.6
2022-10-11T00:32:05.093Z,62.7
2022-10-11T00:33:05.090Z,62.5
2022-10-11T00:34:05.092Z,62.3
2022-10-11T00:35:05.087Z,62.1
2022-10-11T00:36:04.518Z,62.1
2022-10-11T00:37:05.108Z,61.3
2022-10-11T00:40:05.092Z,61.5
2022-10-11T00:41:05.093Z,61.6
2022-10-11T00:42:05.104Z,62.1
2022-10-11T00:43:05.096Z,62.3
2022-10-11T00:45:05.096Z,62.4
2022-10-11T00:48:05.092Z,62.4
2022-10-11T00:49:05.286Z,62.8
2022-10-11T00:50:05.101Z,62.6
2022-10-11T00:51:05.755Z,62.3
2022-10-11T00:52:05.093Z,62.2
2022-10-11T00:53:05.097Z,62
2022-10-11T00:54:05.096Z,62.1
2022-10-11T00:57:05.127Z,61.8
2022-10-11T01:02:05.783Z,62.3
2022-10-11T01:06:06.100Z,61.4
2022-10-11T01:07:05.492Z,61.6
2022-10-11T01:09:05.150Z,61.4
2022-10-11T01:11:05.102Z,61.6
2022-10-11T01:12:05.093Z,61.6
2022-10-11T01:13:05.616Z,61.7
2022-10-11T01:14:05.101Z,61.8
2022-10-11T01:15:05.099Z,61.8
2022-10-11T01:16:05.458Z,61.9
2022-10-11T01:17:05.606Z,61.8
2022-10-11T01:18:05.367Z,62.1
2022-10-11T01:19:05.094Z,61.8
2022-10-11T01:20:05.095Z,61.4
2022-10-11T01:21:05.089Z,61
2022-10-11T01:23:05.098Z,60.1
2022-10-11T01:24:08.559Z,60.3
2022-10-11T01:25:05.191Z,60.4
2022-10-11T01:27:05.365Z,60.6
2022-10-11T01:31:04.175Z,60.6
2022-10-11T01:32:05.614Z,60.8
2022-10-11T01:33:05.104Z,60.9
2022-10-11T01:34:05.123Z,61
2022-10-11T01:35:05.100Z,61.1
2022-10-11T01:36:05.533Z,61.4
2022-10-11T01:37:05.098Z,61.7
2022-10-11T01:38:05.375Z,62.1
2022-10-11T01:39:05.104Z,62.2
2022-10-11T01:42:05.123Z,62.2
2022-10-11T01:44:05.093Z,62.3
2022-10-11T01:45:05.096Z,62.3
2022-10-11T01:46:05.521Z,62.4
2022-10-11T01:48:05.107Z,62.5
2022-10-11T01:49:05.102Z,62.5
2022-10-11T01:50:05.443Z,62.4
2022-10-11T01:52:04.176Z,62.3
2022-10-11T01:53:05.098Z,62.4
2022-10-11T01:55:09.601Z,62.4
2022-10-11T01:57:05.097Z,61.9
2022-10-11T01:58:05.101Z,62
2022-10-11T01:59:05.196Z,62
2022-10-11T02:00:05.097Z,62.1
2022-10-11T02:02:05.102Z,61.8
2022-10-11T02:03:05.101Z,61.4
2022-10-11T02:04:04.169Z,61.2
2022-10-11T02:05:05.122Z,61.2
2022-10-11T02:06:05.327Z,61.4
2022-10-11T02:08:05.103Z,61.3
2022-10-11T02:10:05.346Z,61.5
2022-10-11T02:11:05.575Z,61.4
2022-10-11T02:12:05.099Z,61.5
2022-10-11T02:13:05.097Z,61.6
2022-10-11T02:14:05.218Z,61.4
2022-10-11T02:16:05.320Z,61.4
2022-10-11T02:17:05.097Z,61.4
2022-10-11T02:18:05.108Z,61.6
2022-10-11T02:20:04.193Z,61
2022-10-11T02:21:04.184Z,61.1
2022-10-11T02:23:05.095Z,61.6
2022-10-11T02:24:05.109Z,61.2
2022-10-11T02:25:05.098Z,61.2
2022-10-11T02:26:05.484Z,60.6
2022-10-11T02:28:05.103Z,60.6
2022-10-11T02:29:05.479Z,60.5
2022-10-11T02:30:05.097Z,60.5
2022-10-11T02:31:05.098Z,60.8
2022-10-11T02:33:04.169Z,61.1
2022-10-11T02:34:05.102Z,61.2
2022-10-11T02:35:05.104Z,61.3
2022-10-11T02:37:05.201Z,61.5
2022-10-11T02:38:05.201Z,61.5
2022-10-11T02:39:05.102Z,61.5
2022-10-11T02:40:04.184Z,61.5
2022-10-11T02:41:05.096Z,61.3
2022-10-11T02:42:05.108Z,61.3
2022-10-11T02:43:05.101Z,61.6
2022-10-11T02:44:05.177Z,61.9
2022-10-11T02:45:05.106Z,62
2022-10-11T02:47:05.110Z,62
2022-10-11T02:48:05.105Z,62
2022-10-11T02:49:05.616Z,61.9
2022-10-11T02:51:05.322Z,61.6
2022-10-11T02:52:05.127Z,61.5
2022-10-11T02:54:04.181Z,61.3
2022-10-11T02:55:05.256Z,61.8
2022-10-11T02:56:05.457Z,61.4
2022-10-11T02:57:05.097Z,61.4
2022-10-11T02:58:05.146Z,61.1
2022-10-11T02:59:05.101Z,61.1
2022-10-11T03:01:05.093Z,61
2022-10-11T03:02:05.196Z,61.3
2022-10-11T03:03:05.309Z,61.5
2022-10-11T03:05:05.099Z,61.9
2022-10-11T03:07:05.121Z,62.1
2022-10-11T03:08:05.128Z,62.2
2022-10-11T03:09:05.174Z,62.5
2022-10-11T03:10:05.115Z,62.8
2022-10-11T03:12:05.103Z,63.3
2022-10-11T03:13:05.656Z,63.5
2022-10-11T03:14:05.566Z,63.4
2022-10-11T03:16:05.102Z,63.5
2022-10-11T03:17:31.040Z,63.6
2022-10-11T03:19:05.101Z,63.8
2022-10-11T03:20:05.098Z,63.9
2022-10-11T03:21:05.094Z,64
2022-10-11T03:22:05.107Z,64.1
2022-10-11T03:23:05.099Z,64
2022-10-11T03:24:05.204Z,64
2022-10-11T03:25:05.174Z,63.6
2022-10-11T03:26:05.332Z,63.2
2022-10-11T03:27:05.103Z,62.8
2022-10-11T03:28:05.104Z,62.7
2022-10-11T03:29:05.103Z,62.6
2022-10-11T03:33:05.097Z,63.1
2022-10-11T03:34:05.110Z,62.6
2022-10-11T03:35:05.105Z,62.9
2022-10-11T03:36:05.490Z,62.4
2022-10-11T03:37:05.102Z,62.5
2022-10-11T03:38:05.465Z,62.5
2022-10-11T03:39:05.119Z,63
2022-10-11T03:40:05.132Z,63.4
2022-10-11T03:41:05.146Z,63.7
2022-10-11T03:43:05.464Z,63.9
2022-10-11T03:44:05.584Z,64
2022-10-11T03:47:05.099Z,63.7
2022-10-11T03:48:05.097Z,63.1
2022-10-11T03:49:05.106Z,62.6
2022-10-11T03:50:05.099Z,62.4
2022-10-11T03:51:05.142Z,62
2022-10-11T03:52:05.105Z,61.8
2022-10-11T03:53:05.097Z,61.7
2022-10-11T03:54:05.103Z,61.5
2022-10-11T03:55:05.119Z,61.5
2022-10-11T03:57:05.105Z,61.7
2022-10-11T03:58:05.099Z,62.1
2022-10-11T03:59:05.219Z,62.6
2022-10-11T04:00:05.267Z,62.8
2022-10-11T04:01:05.559Z,62.8
2022-10-11T04:03:05.136Z,63.1
2022-10-11T04:05:05.175Z,63.3
2022-10-11T04:06:05.327Z,63.7
2022-10-11T04:07:05.121Z,63.8
2022-10-11T04:08:09.730Z,63.9
2022-10-11T04:09:05.123Z,63.8
2022-10-11T04:10:05.585Z,63.8
2022-10-11T04:12:05.101Z,63.5
2022-10-11T04:13:05.150Z,63
2022-10-11T04:14:05.103Z,62.8
2022-10-11T04:16:05.450Z,62.5
2022-10-11T04:17:05.107Z,62.1
2022-10-11T04:18:05.419Z,62
2022-10-11T04:19:05.098Z,62.1
2022-10-11T04:20:05.099Z,61.6
2022-10-11T04:21:05.461Z,61.7
2022-10-11T04:22:05.097Z,61.8
2022-10-11T04:24:05.106Z,61.3
2022-10-11T04:26:05.576Z,61.5
2022-10-11T04:27:05.108Z,61.6
2022-10-11T04:28:05.111Z,61.8
2022-10-11T04:29:05.105Z,61.5
2022-10-11T04:31:05.128Z,62.2
2022-10-11T04:34:05.100Z,61.8
2022-10-11T04:36:05.788Z,62
2022-10-11T04:37:05.096Z,61.7
2022-10-11T04:38:05.103Z,61.6
2022-10-11T04:39:05.214Z,61.5
2022-10-11T04:40:05.134Z,61.6
2022-10-11T04:41:05.101Z,61.8
2022-10-11T04:46:05.988Z,63.5
2022-10-11T04:47:05.543Z,63.4
2022-10-11T04:48:05.106Z,63.2
2022-10-11T04:50:05.107Z,63.5
2022-10-11T04:51:05.171Z,63.3
2022-10-11T04:52:05.160Z,62.9
2022-10-11T04:53:05.098Z,62.5
2022-10-11T04:55:05.475Z,62
2022-10-11T04:56:05.880Z,62.1
2022-10-11T04:57:05.102Z,62.3
2022-10-11T04:58:05.112Z,62.6
2022-10-11T04:59:05.411Z,63.2
2022-10-11T05:00:05.097Z,63.7
2022-10-11T05:01:05.096Z,63.9
2022-10-11T05:02:05.771Z,63.9
2022-10-11T05:03:05.100Z,63.9
2022-10-11T05:04:05.117Z,63.9
2022-10-11T05:06:06.113Z,63.6
2022-10-11T05:08:05.109Z,63.9
2022-10-11T05:09:05.506Z,63.4
2022-10-11T05:10:05.111Z,63.2
2022-10-11T05:11:05.162Z,62.8
2022-10-11T05:12:05.489Z,62.7
2022-10-11T05:15:05.106Z,63.4
2022-10-11T05:16:08.373Z,63.7
2022-10-11T05:17:04.173Z,63.9
2022-10-11T05:18:05.108Z,64.3
2022-10-11T05:20:05.420Z,64.2
2022-10-11T05:21:05.177Z,64.1
2022-10-11T05:22:05.103Z,64
2022-10-11T05:23:05.101Z,64
2022-10-11T05:24:05.585Z,64.1
2022-10-11T05:25:05.110Z,64.1
2022-10-11T05:26:05.703Z,64.1
2022-10-11T05:29:05.096Z,64.1
2022-10-11T05:30:05.106Z,63.7
2022-10-11T05:32:05.099Z,63.3
2022-10-11T05:34:05.100Z,63.1
2022-10-11T05:35:05.468Z,63.2
2022-10-11T05:36:05.546Z,63.2
2022-10-11T05:37:05.149Z,63.2
2022-10-11T05:39:05.109Z,62.6
2022-10-11T05:40:05.537Z,62.5
2022-10-11T05:41:05.109Z,62.3
2022-10-11T05:44:05.489Z,62.3
2022-10-11T05:45:05.552Z,62.2
2022-10-11T05:46:05.468Z,62.4
2022-10-11T05:47:05.102Z,62.4
2022-10-11T05:48:05.129Z,62.3
2022-10-11T05:50:05.178Z,62.7
2022-10-11T05:52:04.172Z,62.4
2022-10-11T05:53:05.106Z,62.1
2022-10-11T05:54:05.101Z,62
2022-10-11T05:55:05.095Z,62
2022-10-11T05:58:05.132Z,61.3
2022-10-11T05:59:05.100Z,61.1
2022-10-11T06:00:05.175Z,60.9
2022-10-11T06:02:05.121Z,60.8
2022-10-11T06:05:05.226Z,61.1
2022-10-11T06:07:05.104Z,61.5
2022-10-11T06:10:05.196Z,61.9
2022-10-11T06:11:09.118Z,62
2022-10-11T06:12:05.395Z,61.8
2022-10-11T06:13:06.391Z,61.9
2022-10-11T06:16:05.682Z,61.6
2022-10-11T06:17:05.102Z,61.5
2022-10-11T06:18:05.613Z,61.6
2022-10-11T06:20:05.117Z,61
2022-10-11T06:21:05.424Z,60.9
2022-10-11T06:22:05.588Z,60.8
2022-10-11T06:23:05.105Z,60.7
2022-10-11T06:24:05.108Z,60.6
2022-10-11T06:25:05.098Z,60.3
2022-10-11T06:26:06.042Z,59.9
2022-10-11T06:28:05.101Z,59.5
2022-10-11T06:30:05.107Z,59.8
2022-10-11T06:31:05.103Z,59.8
2022-10-11T06:32:05.099Z,59.8
2022-10-11T06:33:05.202Z,59.9
2022-10-11T06:34:05.095Z,59.7
2022-10-11T06:35:04.175Z,59.6
2022-10-11T06:36:05.472Z,59.3
2022-10-11T06:37:05.513Z,59.1
2022-10-11T06:38:05.108Z,59.3
2022-10-11T06:39:05.101Z,59.7
2022-10-11T06:41:05.336Z,60.1
2022-10-11T06:42:05.096Z,60.2
2022-10-11T06:43:05.106Z,60.2
2022-10-11T06:44:05.098Z,60.2
2022-10-11T06:45:05.098Z,60.4
2022-10-11T06:46:04.503Z,60.6
2022-10-11T06:47:05.123Z,61
2022-10-11T06:48:05.127Z,61.4
2022-10-11T06:50:05.288Z,60.2
2022-10-11T06:51:05.101Z,59.6
2022-10-11T06:52:05.163Z,58.7
2022-10-11T06:53:05.114Z,58.1
2022-10-11T06:54:05.103Z,57.1
2022-10-11T06:55:05.195Z,55.5
2022-10-11T06:57:05.099Z,53.2
2022-10-11T06:58:05.105Z,52.2
2022-10-11T07:00:07.968Z,50.2
2022-10-11T07:01:05.664Z,49.5
2022-10-11T07:03:05.096Z,47.8
2022-10-11T07:04:05.102Z,46.9
2022-10-11T07:05:05.401Z,46.1
2022-10-11T07:08:05.103Z,44.1
2022-10-11T07:09:05.103Z,43.6
2022-10-11T07:11:05.100Z,43.2
2022-10-11T07:13:05.118Z,43.4
2022-10-11T07:14:05.601Z,43.1
2022-10-11T07:16:05.665Z,42.4
2022-10-11T07:17:05.114Z,41.9
2022-10-11T07:18:05.104Z,41.5
2022-10-11T07:19:04.177Z,40.8
2022-10-11T07:20:05.106Z,40.3
2022-10-11T07:21:05.136Z,39.4
2022-10-11T07:22:05.264Z,38.8
2022-10-11T07:23:05.115Z,38.3
2022-10-11T07:24:05.113Z,37.6
2022-10-11T07:25:05.211Z,37.2
2022-10-11T07:26:05.590Z,37.2
2022-10-11T07:27:05.345Z,35.9
2022-10-11T07:29:05.212Z,35
2022-10-11T07:30:05.306Z,34.4
2022-10-11T07:31:05.131Z,34
2022-10-11T07:32:05.106Z,33.6
2022-10-11T07:35:05.114Z,32.1
2022-10-11T07:36:05.359Z,31.5
2022-10-11T07:37:05.110Z,31.3
2022-10-11T07:38:05.192Z,31
2022-10-11T07:39:05.114Z,30.9
2022-10-11T07:40:04.193Z,30.6
2022-10-11T07:42:05.105Z,30.6
2022-10-11T07:43:05.615Z,30.8
2022-10-11T07:44:05.111Z,30.9
2022-10-11T07:46:05.980Z,30.7
2022-10-11T07:47:10.297Z,31.1
2022-10-11T07:49:05.498Z,31.9
2022-10-11T07:50:05.609Z,32.4
2022-10-11T07:51:04.186Z,32.6
2022-10-11T07:53:05.251Z,32.5
2022-10-11T07:55:05.124Z,32
2022-10-11T07:56:05.404Z,32.2
2022-10-11T07:58:05.197Z,33.4
2022-10-11T08:01:05.663Z,33.2
2022-10-11T08:04:05.131Z,31.9
2022-10-11T08:05:05.566Z,31.7
2022-10-11T08:06:05.483Z,30.9
2022-10-11T08:08:05.117Z,30.2
2022-10-11T08:10:05.134Z,30.2
2022-10-11T08:12:05.125Z,30.7
2022-10-11T08:14:05.121Z,30
2022-10-11T08:16:05.691Z,29.3
2022-10-11T08:17:05.141Z,29.2
2022-10-11T08:18:05.176Z,28.6
2022-10-11T08:21:05.124Z,27.2
2022-10-11T08:22:05.643Z,26.8
2022-10-11T08:24:04.221Z,26.5
2022-10-11T08:27:05.573Z,25.9
2022-10-11T08:28:05.210Z,26.1
2022-10-11T08:29:05.460Z,25.8
2022-10-11T08:30:05.123Z,25.2
2022-10-11T08:31:05.375Z,24.8
2022-10-11T08:32:05.135Z,25.5
2022-10-11T08:33:08.557Z,26.1
2022-10-11T08:34:05.551Z,26.3
2022-10-11T08:37:05.565Z,27
2022-10-11T08:39:05.137Z,27.1
2022-10-11T08:41:05.321Z,26.4
2022-10-11T08:42:05.150Z,25.9
2022-10-11T08:45:10.918Z,25.1
2022-10-11T08:49:05.170Z,25.2
2022-10-11T08:50:05.552Z,25
2022-10-11T08:51:05.143Z,24.7
2022-10-11T08:53:05.148Z,23.7
2022-10-11T08:54:07.775Z,23.2
2022-10-11T08:56:05.497Z,22.8
2022-10-11T08:57:05.149Z,22.4
2022-10-11T08:58:05.149Z,23
2022-10-11T08:59:05.183Z,22.9
2022-10-11T09:00:05.146Z,22.8
2022-10-11T09:01:05.227Z,23.3
2022-10-11T09:02:05.634Z,22.8
2022-10-11T09:03:09.577Z,23.4
2022-10-11T09:04:05.352Z,24
2022-10-11T09:05:05.158Z,24.5
2022-10-11T09:06:04.761Z,24.5
2022-10-11T09:07:05.142Z,24.7
2022-10-11T09:08:05.168Z,25.3
2022-10-11T09:09:05.156Z,25.7
2022-10-11T09:10:05.393Z,26.3
2022-10-11T09:11:05.161Z,26.4
2022-10-11T09:12:05.704Z,26.4
2022-10-11T09:13:05.153Z,26.8
2022-10-11T09:14:05.191Z,26.7
2022-10-11T09:15:05.150Z,27.2
2022-10-11T09:17:05.165Z,28.2
2022-10-11T09:19:05.655Z,27.8
2022-10-11T09:20:05.575Z,27.8
2022-10-11T09:22:05.168Z,28.2
2022-10-11T09:23:05.188Z,27.8
2022-10-11T09:24:05.166Z,27.8
2022-10-11T09:27:05.300Z,27
2022-10-11T09:30:05.171Z,28
2022-10-11T09:32:05.518Z,28.1
2022-10-11T09:35:05.169Z,27.9
2022-10-11T09:36:05.480Z,27.3
2022-10-11T09:38:05.173Z,27.8
2022-10-11T09:39:06.785Z,28.1
2022-10-11T09:40:05.175Z,28.3
2022-10-11T09:42:05.550Z,28.8
2022-10-11T09:43:05.172Z,28.5
2022-10-11T09:44:05.181Z,28.7
2022-10-11T09:45:05.303Z,28.9
2022-10-11T09:46:05.464Z,28.4
2022-10-11T09:47:05.519Z,28.4
2022-10-11T09:48:05.178Z,28.4
2022-10-11T09:49:05.185Z,28.2
2022-10-11T09:50:05.178Z,27.8
2022-10-11T09:51:05.193Z,27.5
2022-10-11T09:52:05.177Z,27.4
2022-10-11T09:53:05.176Z,27.5
2022-10-11T09:54:05.181Z,27.9
2022-10-11T09:56:05.556Z,25.5
2022-10-11T09:58:05.181Z,26.3
2022-10-11T10:02:05.303Z,26.8
2022-10-11T10:04:05.214Z,26.4
2022-10-11T10:05:05.185Z,26.6
2022-10-11T10:06:05.814Z,27.2
2022-10-11T10:07:05.199Z,27.1
2022-10-11T10:08:05.528Z,27.1
2022-10-11T10:09:05.199Z,27.5
2022-10-11T10:13:05.274Z,28.9
2022-10-11T10:14:05.212Z,29
2022-10-11T10:15:05.185Z,29.7
2022-10-11T10:17:05.193Z,27.8
2022-10-11T10:18:05.188Z,28.8
2022-10-11T10:19:05.637Z,29.5
2022-10-11T10:20:05.215Z,29.1
2022-10-11T10:21:05.217Z,28.8
2022-10-11T10:24:04.264Z,29.9
2022-10-11T10:25:05.193Z,28.7
2022-10-11T10:26:05.433Z,28.5
2022-10-11T10:27:05.190Z,29.2
2022-10-11T10:28:04.279Z,28.8
2022-10-11T10:29:05.188Z,29.1
2022-10-11T10:30:07.157Z,30.3
2022-10-11T10:32:20.755Z,29.9
2022-10-11T10:33:05.649Z,31.6
2022-10-11T10:37:05.197Z,32.2
2022-10-11T10:38:05.681Z,32.3
2022-10-11T10:39:05.218Z,34
2022-10-11T10:41:05.687Z,31.2
2022-10-11T10:42:05.631Z,33.4
2022-10-11T10:43:05.210Z,32.7
2022-10-11T10:44:05.200Z,32.8
2022-10-11T10:45:09.713Z,33
2022-10-11T10:46:05.813Z,32.9
2022-10-11T10:47:05.685Z,33.2
2022-10-11T10:48:05.203Z,33.7
2022-10-11T10:49:41.177Z,34.3
2022-10-11T10:50:05.199Z,34
2022-10-11T10:52:05.209Z,34.8
2022-10-11T10:54:05.627Z,34.9
2022-10-11T10:55:05.663Z,35
2022-10-11T10:56:04.857Z,35.7
2022-10-11T11:00:05.205Z,36.8
2022-10-11T11:01:05.218Z,35.2
2022-10-11T11:02:28.223Z,32.9
2022-10-11T11:03:05.204Z,34.4
2022-10-11T11:04:05.221Z,33.2
2022-10-11T11:05:05.213Z,32.9
2022-10-11T11:06:05.660Z,32.8
2022-10-11T11:07:04.299Z,32.7
2022-10-11T11:08:05.407Z,34.3
2022-10-11T11:09:05.212Z,35.1
2022-10-11T11:10:05.205Z,36.1
2022-10-11T11:11:05.217Z,34.7
2022-10-11T11:12:05.257Z,33.4
2022-10-11T11:13:05.213Z,34.2
2022-10-11T11:14:05.626Z,35.1
2022-10-11T11:15:05.213Z,34.7
2022-10-11T11:16:05.874Z,36.1
2022-10-11T11:19:05.568Z,35.6
2022-10-11T11:20:05.320Z,36.3
2022-10-11T11:21:05.272Z,35.1
2022-10-11T11:22:05.392Z,35.8
2022-10-11T11:23:05.216Z,36.8
2022-10-11T11:24:05.508Z,34.7
2022-10-11T11:25:05.216Z,34.4
2022-10-11T11:26:05.384Z,34.4
2022-10-11T11:27:05.215Z,35.2
2022-10-11T11:28:05.524Z,35.8
2022-10-11T11:30:04.295Z,33.2
2022-10-11T11:31:05.552Z,33.7
2022-10-11T11:32:05.290Z,33.5
2022-10-11T11:34:05.711Z,32.9
2022-10-11T11:35:05.223Z,33.6
2022-10-11T11:37:05.223Z,32.2
2022-10-11T11:38:06.570Z,33.2
2022-10-11T11:40:05.225Z,31.4
2022-10-11T11:41:05.520Z,33.2
2022-10-11T11:42:05.234Z,34.7
2022-10-11T11:43:05.219Z,36.1
2022-10-11T11:44:05.230Z,34.8
2022-10-11T11:45:05.220Z,33.1
2022-10-11T11:46:05.270Z,35
2022-10-11T11:49:08.562Z,33.4
2022-10-11T11:50:05.551Z,33.1
2022-10-11T11:53:05.228Z,33.5
2022-10-11T11:54:05.229Z,33.1
2022-10-11T11:55:05.247Z,32.6
2022-10-11T11:56:05.514Z,31.2
2022-10-11T11:57:05.342Z,31.4
2022-10-11T11:58:07.289Z,32.6
2022-10-11T11:59:05.227Z,32.7
2022-10-11T12:00:05.320Z,33
2022-10-11T12:01:05.605Z,33.5
2022-10-11T12:04:05.243Z,32.9
2022-10-11T12:06:05.670Z,32.4
2022-10-11T12:07:15.865Z,30.6
2022-10-11T12:08:05.244Z,32.4
2022-10-11T12:12:05.267Z,32.5
2022-10-11T12:14:05.240Z,32.1
2022-10-11T12:16:05.246Z,30.4
2022-10-11T12:17:05.444Z,30.5
2022-10-11T12:18:05.230Z,31.5
2022-10-11T12:20:05.240Z,31.9
2022-10-11T12:21:05.523Z,31
2022-10-11T12:25:05.669Z,30
2022-10-11T12:26:05.281Z,30
2022-10-11T12:27:05.241Z,29.5
2022-10-11T12:28:05.239Z,29.8
2022-10-11T12:29:05.235Z,32
2022-10-11T12:31:05.834Z,30.6
2022-10-11T12:32:05.277Z,31.3
2022-10-11T12:35:05.345Z,34.1
2022-10-11T12:36:08.332Z,34.3
2022-10-11T12:37:06.765Z,34.8
2022-10-11T12:38:05.237Z,34.4
2022-10-11T12:39:05.241Z,35.4
2022-10-11T12:40:05.350Z,35.2
2022-10-11T12:41:05.445Z,35.2
2022-10-11T12:42:06.100Z,35.2
2022-10-11T12:44:05.650Z,34.5
2022-10-11T12:45:05.240Z,34.2
2022-10-11T12:46:05.498Z,34.6
2022-10-11T12:47:05.240Z,34.5
2022-10-11T12:48:05.245Z,35.9
2022-10-11T12:49:05.247Z,36.4
2022-10-11T12:50:05.251Z,35.8
2022-10-11T12:51:05.246Z,35.8
2022-10-11T12:52:05.279Z,35.6
2022-10-11T12:55:04.324Z,34.6
2022-10-11T12:56:04.721Z,35.5
2022-10-11T12:58:05.422Z,36
2022-10-11T12:59:05.375Z,35.3
2022-10-11T13:00:05.256Z,33.9
2022-10-11T13:02:05.253Z,32.3
2022-10-11T13:03:05.255Z,31.9
2022-10-11T13:05:05.253Z,33.2
2022-10-11T13:06:05.553Z,33.7
2022-10-11T13:07:06.872Z,34.6
2022-10-11T13:09:05.250Z,36.4
2022-10-11T13:10:05.297Z,34.9
2022-10-11T13:11:05.252Z,34
2022-10-11T13:12:05.272Z,34.8
2022-10-11T13:13:05.254Z,34.1
2022-10-11T13:14:05.610Z,33.6
2022-10-11T13:15:05.905Z,33.1
2022-10-11T13:16:04.706Z,34
2022-10-11T13:17:06.218Z,33.7
2022-10-11T13:18:05.521Z,32.7
2022-10-11T13:20:05.955Z,33
2022-10-11T13:21:05.609Z,34.6
2022-10-11T13:22:05.255Z,34.4
2022-10-11T13:23:05.259Z,35.2
2022-10-11T13:24:05.697Z,35.2
2022-10-11T13:25:05.332Z,36.5
2022-10-11T13:26:05.401Z,35.9
2022-10-11T13:27:06.003Z,36.8
2022-10-11T13:28:05.317Z,36.8
2022-10-11T13:29:05.270Z,36.7
2022-10-11T13:31:05.569Z,36.6
2022-10-11T13:32:05.365Z,36.2
2022-10-11T13:33:05.274Z,35.8
2022-10-11T13:34:05.267Z,35.4
2022-10-11T13:35:05.261Z,35.3
2022-10-11T13:36:04.781Z,35
2022-10-11T13:37:05.268Z,34.3
2022-10-11T13:38:05.259Z,34.5
2022-10-11T13:39:05.507Z,35
2022-10-11T13:40:05.291Z,35.6
2022-10-11T13:41:05.312Z,36.7
2022-10-11T13:42:05.606Z,36.5
2022-10-11T13:44:05.254Z,36.7
2022-10-11T13:45:05.262Z,36.9
2022-10-11T13:46:05.627Z,38.1
2022-10-11T13:47:05.275Z,38.3
2022-10-11T13:48:05.551Z,38.3
2022-10-11T13:49:05.261Z,38.6
2022-10-11T13:50:05.272Z,37.1
2022-10-11T13:51:05.267Z,36.5
2022-10-11T13:52:05.288Z,36.2
2022-10-11T13:53:05.368Z,35.2
2022-10-11T13:54:05.281Z,36.2
2022-10-11T13:55:05.270Z,35.6
2022-10-11T13:57:05.275Z,36.8
2022-10-11T13:58:05.281Z,36.2
2022-10-11T13:59:05.633Z,36.8
2022-10-11T14:00:05.581Z,37.5
2022-10-11T14:01:05.335Z,35.2
2022-10-11T14:02:05.834Z,35.7
2022-10-11T14:03:05.272Z,34.9
2022-10-11T14:04:05.491Z,36.4
2022-10-11T14:05:05.285Z,35.9
2022-10-11T14:06:05.582Z,36.2
2022-10-11T14:07:05.755Z,35.6
2022-10-11T14:08:06.053Z,36.8
2022-10-11T14:10:06.110Z,36.8
2022-10-11T14:11:06.773Z,33.8
2022-10-11T14:12:05.272Z,33.5
2022-10-11T14:13:05.279Z,34.3
2022-10-11T14:14:05.612Z,34.1
2022-10-11T14:15:05.273Z,34
2022-10-11T14:16:06.277Z,34.3
2022-10-11T14:17:05.280Z,33.9
2022-10-11T14:18:05.286Z,34.6
2022-10-11T14:19:05.279Z,34
2022-10-11T14:20:10.911Z,33.9
2022-10-11T14:22:05.769Z,34.6
2022-10-11T14:23:05.631Z,34.2
2022-10-11T14:24:05.870Z,35.6
2022-10-11T14:25:05.276Z,35.4
2022-10-11T14:26:06.398Z,35.5
2022-10-11T14:27:05.823Z,34.6
2022-10-11T14:28:05.273Z,35.8
2022-10-11T14:29:06.252Z,35.7
2022-10-11T14:31:06.484Z,34.6
2022-10-11T14:32:04.349Z,34.9
2022-10-11T14:33:05.525Z,35.2
2022-10-11T14:34:05.393Z,34.2
2022-10-11T14:35:05.700Z,36.2
2022-10-11T14:37:05.282Z,34
2022-10-11T14:38:05.739Z,34.1
2022-10-11T14:39:05.287Z,34.5
2022-10-11T14:40:05.669Z,34.2
2022-10-11T14:41:05.329Z,35.8
2022-10-11T14:42:05.291Z,34.8
2022-10-11T14:44:05.282Z,35.5
2022-10-11T14:45:05.573Z,34.2
2022-10-11T14:46:05.618Z,35.3
2022-10-11T14:47:05.295Z,34.2
2022-10-11T14:48:05.309Z,35.3
2022-10-11T14:49:05.376Z,34.9
2022-10-11T14:50:05.415Z,35.8
2022-10-11T14:52:05.404Z,34.6
2022-10-11T14:53:05.288Z,36.1
2022-10-11T14:55:05.691Z,35.2
2022-10-11T14:56:06.150Z,34.2
2022-10-11T14:57:05.286Z,35.1
2022-10-11T14:58:06.023Z,34.8
2022-10-11T14:59:05.291Z,34.7
2022-10-11T15:00:05.727Z,35.4
2022-10-11T15:01:05.362Z,35.5
2022-10-11T15:02:05.419Z,35.4
2022-10-11T15:03:05.980Z,35.9
2022-10-11T15:04:05.326Z,35.3
2022-10-11T15:06:05.582Z,35
2022-10-11T15:07:05.768Z,35.3
2022-10-11T15:08:06.144Z,34.7
2022-10-11T15:09:05.291Z,35.3
2022-10-11T15:10:05.304Z,36.2
2022-10-11T15:11:05.951Z,36.5
2022-10-11T15:12:05.285Z,36
2022-10-11T15:13:05.492Z,36.1
2022-10-11T15:15:05.291Z,35.7
2022-10-11T15:16:05.807Z,36
2022-10-11T15:18:05.295Z,36.3
2022-10-11T15:19:06.092Z,36.8
2022-10-11T15:20:05.778Z,37.1
2022-10-11T15:21:05.437Z,36.7
2022-10-11T15:22:05.659Z,36.6
2022-10-11T15:23:05.296Z,36.3
2022-10-11T15:24:05.505Z,36.2
2022-10-11T15:25:05.303Z,36.4
2022-10-11T15:26:05.895Z,36.3
2022-10-11T15:27:05.393Z,36.8
2022-10-11T15:28:05.294Z,36.6
2022-10-11T15:29:05.985Z,36.7
2022-10-11T15:30:05.710Z,36.5
2022-10-11T15:31:05.346Z,36.6
2022-10-11T15:32:05.319Z,35.8
2022-10-11T15:34:05.840Z,37.3
2022-10-11T15:35:05.702Z,37.5
2022-10-11T15:36:04.745Z,37.4
2022-10-11T15:37:04.376Z,38
2022-10-11T15:38:05.810Z,37.5
2022-10-11T15:39:05.337Z,37
2022-10-11T15:40:05.298Z,36.6
2022-10-11T15:41:05.722Z,37.2
2022-10-11T15:42:06.039Z,37.3
2022-10-11T15:43:05.998Z,38.1
2022-10-11T15:44:05.304Z,37.8
2022-10-11T15:45:05.306Z,37.9
2022-10-11T15:46:06.053Z,37.6
2022-10-11T15:47:05.965Z,37.4
2022-10-11T15:48:04.385Z,37.8
2022-10-11T15:49:06.808Z,38.3
2022-10-11T15:50:05.306Z,38.5
2022-10-11T15:51:05.364Z,36.6
2022-10-11T15:53:05.879Z,37.1
2022-10-11T15:54:05.333Z,37.7
2022-10-11T15:55:05.308Z,38
2022-10-11T15:57:06.111Z,38.3
2022-10-11T15:58:05.323Z,37.4
2022-10-11T16:00:04.385Z,37.3
2022-10-11T16:01:05.698Z,37.9
2022-10-11T16:02:05.969Z,38.1
2022-10-11T16:03:05.358Z,38.5
2022-10-11T16:04:05.667Z,39
2022-10-11T16:05:05.305Z,38.7
2022-10-11T16:06:06.019Z,38.6
2022-10-11T16:08:06.261Z,39.3
2022-10-11T16:09:05.309Z,39.1
2022-10-11T16:10:05.322Z,39.1
2022-10-11T16:11:05.309Z,39.5
2022-10-11T16:12:05.304Z,39.7
2022-10-11T16:13:05.308Z,40
2022-10-11T16:14:05.311Z,39.8
2022-10-11T16:15:05.319Z,39.9
2022-10-11T16:16:05.878Z,39.7
2022-10-11T16:18:05.315Z,40
2022-10-11T16:20:05.322Z,40.1
2022-10-11T16:22:04.390Z,40.1
2022-10-11T16:23:05.422Z,40.4
2022-10-11T16:24:05.318Z,41.4
2022-10-11T16:25:05.566Z,41.5
2022-10-11T16:27:05.316Z,42.5
2022-10-11T16:28:05.316Z,42.7
2022-10-11T16:30:05.321Z,42.9
2022-10-11T16:31:05.315Z,43.5
2022-10-11T16:32:05.317Z,43.7
2022-10-11T16:34:05.341Z,43.4
2022-10-11T16:35:05.428Z,42.9
2022-10-11T16:36:05.579Z,42.8
2022-10-11T16:37:05.339Z,43
2022-10-11T16:39:05.318Z,43.8
2022-10-11T16:40:05.318Z,44.1
2022-10-11T16:41:05.337Z,44.6
2022-10-11T16:43:07.729Z,44.7
2022-10-11T16:45:05.317Z,45.7
2022-10-11T16:46:05.667Z,45.8
2022-10-11T16:48:05.643Z,45.4
2022-10-11T16:49:05.318Z,45.5
2022-10-11T16:50:05.322Z,46.4
2022-10-11T16:51:05.321Z,46.8
2022-10-11T16:52:05.320Z,47.7
2022-10-11T16:53:05.382Z,47.4
2022-10-11T16:54:05.323Z,47.3
2022-10-11T16:55:05.698Z,46.9
2022-10-11T16:56:05.567Z,46.7
2022-10-11T16:57:05.323Z,46.6
2022-10-11T16:58:05.324Z,46.7
2022-10-11T16:59:05.333Z,46.7
2022-10-11T17:00:05.320Z,46.6
2022-10-11T17:02:05.328Z,47.1
2022-10-11T17:03:05.319Z,47.8
2022-10-11T17:04:05.597Z,48.4
2022-10-11T17:05:05.362Z,48.6
2022-10-11T17:07:05.326Z,48.8
2022-10-11T17:09:05.319Z,48.9
2022-10-11T17:12:05.406Z,49.6
2022-10-11T17:15:04.409Z,49.1
2022-10-11T17:16:06.208Z,49
2022-10-11T17:18:05.332Z,49
2022-10-11T17:19:05.333Z,49.4
2022-10-11T17:22:05.335Z,49.9
2022-10-11T17:23:05.329Z,50.5
2022-10-11T17:24:05.329Z,50.2
2022-10-11T17:25:05.329Z,50.5
2022-10-11T17:27:04.410Z,50.5
2022-10-11T17:28:05.325Z,50.4
2022-10-11T17:29:05.670Z,50.6
2022-10-11T17:30:05.325Z,50.5
2022-10-11T17:31:05.805Z,50.2
2022-10-11T17:32:05.321Z,50.2
2022-10-11T17:34:05.335Z,50.1
2022-10-11T17:35:05.745Z,50.1
2022-10-11T17:36:05.653Z,50.3
2022-10-11T17:38:06.373Z,50.3
2022-10-11T17:39:05.329Z,50.2
2022-10-11T17:40:05.808Z,50.7